Time;durP1;ratioP1;P1;durP2;ratioP2;P2;SDS_P1;SDS_P2;PMS_P1;PMS_P2;Temp;Humidity;BMP_temperature;BMP_pressure;BME280_temperature;BME280_humidity;BME280_pressure;Samples;Min_cycle;Max_cycle;Signal;HPM_P1;HPM_P2
2022/05/21 00:02:08;;;;;;;5.10;2.38;;;21.10;51.40;20.10;101427.00;;;;5051123;28;20217;-71
2022/05/21 00:04:54;;;;;;;5.57;2.53;;;21.10;51.30;20.10;101447.00;;;;5040723;28;20057;-72
2022/05/21 00:07:41;;;;;;;4.53;2.65;;;21.10;51.20;20.10;101451.00;;;;5041675;28;20041;-71
2022/05/21 00:10:28;;;;;;;5.60;2.47;;;21.10;51.10;20.10;101450.00;;;;5041427;28;20479;-72
2022/05/21 00:13:14;;;;;;;4.50;2.35;;;21.00;51.10;20.10;101455.00;;;;5048494;28;20049;-72
2022/05/21 00:16:00;;;;;;;4.78;2.38;;;21.10;51.10;20.00;101452.00;;;;5054285;28;20045;-71
2022/05/21 00:18:47;;;;;;;5.60;2.78;;;21.10;51.10;20.00;101462.00;;;;5041423;28;20049;-72
2022/05/21 00:21:33;;;;;;;5.75;3.00;;;21.00;50.90;20.00;101462.00;;;;5044851;28;20195;-72
2022/05/21 00:24:19;;;;;;;5.47;3.05;;;21.00;51.10;20.00;101453.00;;;;5062749;28;20478;-72
2022/05/21 00:27:07;;;;;;;6.97;2.75;;;21.00;51.10;20.00;101445.00;;;;5040487;28;20040;-72
2022/05/21 00:29:53;;;;;;;6.32;2.80;;;20.90;51.10;20.00;101444.00;;;;5061319;28;20545;-72
2022/05/21 00:32:40;;;;;;;6.03;3.00;;;20.90;51.00;20.00;101448.00;;;;5039310;28;20037;-72
2022/05/21 00:35:26;;;;;;;4.38;3.13;;;20.90;51.10;20.00;101443.00;;;;5036779;28;20063;-72
2022/05/21 00:38:12;;;;;;;6.63;3.58;;;20.90;51.10;19.90;101448.00;;;;5053623;28;20676;-72
2022/05/21 00:40:58;;;;;;;5.75;3.50;;;20.90;51.10;19.90;101442.00;;;;5043716;28;20525;-72
2022/05/21 00:43:48;;;;;;;7.80;3.55;;;20.90;51.30;19.90;101444.00;;;;5030484;28;20052;-72
2022/05/21 00:46:40;;;;;;;7.53;3.83;;;20.90;51.20;19.90;101438.00;;;;5034226;28;20128;-72
2022/05/21 00:49:33;;;;;;;4.78;3.88;;;20.90;51.20;19.90;101443.00;;;;5044368;28;20042;-72
2022/05/21 00:52:24;;;;;;;6.68;4.30;;;20.90;51.10;19.90;101440.00;;;;5041994;28;20044;-72
2022/05/21 00:55:17;;;;;;;8.48;5.40;;;20.90;51.00;19.90;101440.00;;;;5031814;28;20048;-72
2022/05/21 01:01:15;;;;;;;8.20;4.57;;;20.90;51.00;19.90;101438.00;;;;5044439;28;20047;-72
2022/05/21 01:04:01;;;;;;;6.68;4.63;;;20.90;51.20;19.90;101438.00;;;;5048418;28;20055;-72
2022/05/21 01:06:48;;;;;;;6.80;4.38;;;20.90;51.20;19.90;101437.00;;;;5065396;28;20115;-72
2022/05/21 01:09:34;;;;;;;6.95;4.70;;;20.90;51.20;19.90;101440.00;;;;5034769;28;20044;-72
2022/05/21 01:12:22;;;;;;;10.45;4.85;;;20.80;51.20;19.90;101438.00;;;;5073582;28;20039;-72
2022/05/21 01:15:16;;;;;;;8.05;4.93;;;20.80;51.20;19.90;101437.00;;;;5043757;28;20045;-72
2022/05/21 01:18:06;;;;;;;9.10;5.20;;;20.80;51.10;19.80;101444.00;;;;5048761;28;20037;-71
2022/05/21 01:20:57;;;;;;;7.93;4.72;;;20.80;51.20;19.80;101432.00;;;;5060446;28;20048;-72
2022/05/21 01:23:43;;;;;;;9.38;5.18;;;20.80;51.20;19.80;101427.00;;;;5044117;28;20119;-72
2022/05/21 01:26:29;;;;;;;7.53;5.63;;;20.80;51.30;19.80;101420.00;;;;5062738;28;20493;-72
2022/05/21 01:29:22;;;;;;;6.60;5.28;;;20.80;51.20;19.80;101425.00;;;;5073224;28;20044;-72
2022/05/21 01:32:08;;;;;;;6.65;5.13;;;20.80;51.20;19.80;101427.00;;;;5045717;28;20068;-72
2022/05/21 01:34:56;;;;;;;7.95;6.00;;;20.80;51.10;19.80;101439.00;;;;5031355;28;20150;-72
2022/05/21 01:37:42;;;;;;;;;;;20.80;51.10;19.80;101423.00;;;;5066175;28;20071;-72
2022/05/21 01:40:29;;;;;;;8.43;5.85;;;20.80;51.50;19.80;101424.00;;;;5081366;28;20316;-72
2022/05/21 01:46:19;;;;;;;7.60;5.65;;;20.80;51.20;19.80;101428.00;;;;5060488;28;20538;-72
2022/05/21 01:49:05;;;;;;;8.68;6.63;;;20.80;51.20;19.80;101429.00;;;;5064774;28;20054;-72
2022/05/21 01:51:51;;;;;;;9.70;6.30;;;20.80;51.20;19.80;101429.00;;;;5059757;28;20037;-71
2022/05/21 01:54:38;;;;;;;10.55;6.85;;;20.80;51.20;19.80;101436.00;;;;5048494;28;20045;-72
2022/05/21 01:57:24;;;;;;;10.30;7.53;;;20.70;51.20;19.80;101431.00;;;;5056851;28;20488;-72
2022/05/21 02:00:10;;;;;;;13.30;8.75;;;20.80;51.20;19.80;101422.00;;;;5062345;28;20036;-71
2022/05/21 02:02:56;;;;;;;12.18;7.93;;;20.80;51.30;19.80;101430.00;;;;5056201;28;20049;-71
2022/05/21 02:05:45;;;;;;;12.20;8.10;;;20.70;51.40;19.80;101419.00;;;;5063503;28;20040;-71
2022/05/21 02:08:31;;;;;;;10.77;8.70;;;20.70;51.30;19.80;101414.00;;;;5060362;28;20446;-71
2022/05/21 02:11:17;;;;;;;11.13;8.40;;;20.70;51.40;19.80;101428.00;;;;5046620;28;20037;-71
2022/05/21 02:14:04;;;;;;;11.70;7.97;;;20.70;51.50;19.70;101418.00;;;;5057741;28;20069;-72
2022/05/21 02:16:50;;;;;;;10.60;8.65;;;20.70;51.50;19.70;101416.00;;;;5072011;28;20048;-72
2022/05/21 02:19:36;;;;;;;10.13;8.73;;;20.70;51.50;19.70;101411.00;;;;5062011;28;20143;-72
2022/05/21 02:22:22;;;;;;;10.98;8.18;;;20.80;51.40;19.70;101408.00;;;;5062939;28;20402;-71
2022/05/21 02:25:08;;;;;;;10.20;8.60;;;20.70;51.40;19.70;101405.00;;;;5069444;28;20047;-71
2022/05/21 02:27:54;;;;;;;13.20;8.68;;;20.70;51.40;19.70;101415.00;;;;5044994;28;20040;-72
2022/05/21 02:30:41;;;;;;;12.82;8.55;;;20.70;51.40;19.70;101410.00;;;;5048130;28;20398;-72
2022/05/21 02:33:27;;;;;;;11.52;9.07;;;20.80;51.50;19.70;101403.00;;;;5056984;28;20041;-71
2022/05/21 02:36:13;;;;;;;12.60;9.32;;;20.70;51.40;19.70;101396.00;;;;5058988;28;20048;-72
2022/05/21 02:42:42;;;;;;;13.00;8.63;;;20.60;51.40;19.70;101399.00;;;;5058112;28;20171;-72
2022/05/21 02:45:12;;;;;;;11.35;8.88;;;20.70;51.50;19.70;101403.00;;;;5053024;28;20488;-71
2022/05/21 02:47:59;;;;;;;11.63;8.30;;;20.70;51.50;19.70;101399.00;;;;5046787;28;20032;-72
2022/05/21 02:50:45;;;;;;;12.45;8.90;;;20.60;51.40;19.70;101416.00;;;;5058521;28;20362;-71
2022/05/21 02:53:31;;;;;;;9.98;8.23;;;20.70;51.40;19.70;101404.00;;;;5056249;28;20040;-72
2022/05/21 02:56:17;;;;;;;12.50;8.80;;;20.70;51.40;19.60;101410.00;;;;5064491;28;20033;-72
2022/05/21 02:59:06;;;;;;;13.13;9.43;;;20.60;51.30;19.60;101415.00;;;;5055147;28;20087;-72
2022/05/21 03:01:52;;;;;;;14.55;8.55;;;20.60;51.40;19.60;101411.00;;;;5060667;28;20052;-72
2022/05/21 03:04:38;;;;;;;13.20;8.98;;;20.60;51.40;19.60;101401.00;;;;5061780;28;20402;-72
2022/05/21 03:07:24;;;;;;;16.65;9.27;;;20.60;51.40;19.60;101406.00;;;;5056790;28;20040;-72
2022/05/21 03:10:21;;;;;;;13.02;8.55;;;20.60;51.40;19.60;101408.00;;;;5061752;28;20063;-72
2022/05/21 03:13:07;;;;;;;11.13;8.80;;;20.60;51.40;19.60;101404.00;;;;5033725;28;20071;-72
2022/05/21 03:15:53;;;;;;;12.30;8.82;;;20.60;51.40;19.60;101401.00;;;;5058441;28;20044;-72
2022/05/21 03:18:39;;;;;;;14.15;9.02;;;20.60;51.30;19.60;101398.00;;;;5057933;28;20040;-72
2022/05/21 03:21:25;;;;;;;12.07;9.10;;;20.60;51.40;19.60;101404.00;;;;5062324;28;20382;-72
2022/05/21 03:24:11;;;;;;;11.50;8.35;;;20.50;51.30;19.60;101408.00;;;;5060600;28;20040;-72
2022/05/21 03:26:58;;;;;;;13.48;9.52;;;20.60;51.40;19.60;101399.00;;;;5061287;28;20090;-71
2022/05/21 03:29:44;;;;;;;13.10;9.55;;;20.60;51.40;19.60;101399.00;;;;5061974;28;20040;-72
2022/05/21 03:32:30;;;;;;;10.75;8.40;;;20.60;51.40;19.60;101397.00;;;;5058941;28;20444;-72
2022/05/21 03:35:16;;;;;;;15.52;9.93;;;20.50;51.40;19.60;101398.00;;;;5063199;28;20036;-72
2022/05/21 03:38:02;;;;;;;13.90;9.07;;;20.50;51.50;19.60;101391.00;;;;5043582;28;20033;-72
2022/05/21 03:40:48;;;;;;;13.40;8.75;;;20.60;51.50;19.50;101396.00;;;;5035075;28;20124;-72
2022/05/21 03:43:34;;;;;;;14.00;10.38;;;20.50;51.50;19.50;101400.00;;;;5045759;28;20036;-72
2022/05/21 03:46:21;;;;;;;12.15;8.88;;;20.50;51.60;19.50;101406.00;;;;5062720;28;20127;-72
2022/05/21 03:49:07;;;;;;;16.17;8.27;;;20.50;51.50;19.50;101404.00;;;;5055794;28;20292;-71
2022/05/21 03:51:53;;;;;;;13.73;9.40;;;20.50;51.60;19.60;101399.00;;;;5066238;28;20041;-72
2022/05/21 03:54:39;;;;;;;11.43;9.45;;;20.50;51.60;19.50;101401.00;;;;5038508;28;20045;-72
2022/05/21 03:57:25;;;;;;;13.98;9.90;;;20.50;51.60;19.50;101408.00;;;;5070497;28;20041;-72
2022/05/21 04:00:13;;;;;;;12.25;9.27;;;20.50;51.60;19.50;101399.00;;;;5045193;28;20052;-72
2022/05/21 04:03:01;;;;;;;13.45;9.60;;;20.50;51.60;19.50;101402.00;;;;5053502;28;20037;-72
2022/05/21 04:05:47;;;;;;;14.10;9.25;;;20.50;51.60;19.50;101405.00;;;;5044325;28;20100;-72
2022/05/21 04:08:33;;;;;;;13.60;9.23;;;20.50;51.70;19.50;101394.00;;;;5072672;28;20090;-72
2022/05/21 04:11:19;;;;;;;10.00;9.00;;;20.50;51.70;19.50;101397.00;;;;5043951;28;20037;-72
2022/05/21 04:14:07;;;;;;;12.45;9.18;;;20.50;51.70;19.50;101408.00;;;;5040395;28;20034;-72
2022/05/21 04:16:55;;;;;;;12.70;8.90;;;20.50;51.80;19.50;101404.00;;;;5046052;28;20043;-72
2022/05/21 04:19:41;;;;;;;;;;;20.60;51.80;19.50;101409.00;;;;5046054;28;20041;-72
2022/05/21 04:22:27;;;;;;;12.73;8.85;;;20.50;51.90;19.50;101416.00;;;;5052721;28;19913;-72
2022/05/21 04:25:13;;;;;;;12.65;8.60;;;20.50;51.70;19.50;101411.00;;;;5068335;28;20090;-71
2022/05/21 04:27:59;;;;;;;13.45;9.50;;;20.50;51.70;19.50;101413.00;;;;5043316;28;20077;-72
2022/05/21 04:30:45;;;;;;;12.60;8.65;;;20.50;51.80;19.50;101407.00;;;;5046213;28;20056;-72
2022/05/21 04:33:31;;;;;;;11.55;8.45;;;20.50;51.90;19.50;101410.00;;;;5039186;28;20467;-72
2022/05/21 04:36:20;;;;;;;11.15;9.02;;;20.50;51.90;19.50;101411.00;;;;5048774;28;20037;-72
2022/05/21 04:39:06;;;;;;;13.32;8.88;;;20.50;51.90;19.50;101411.00;;;;5037450;28;20038;-72
2022/05/21 04:41:52;;;;;;;14.23;8.52;;;20.40;51.90;19.50;101411.00;;;;5045268;28;20424;-72
2022/05/21 04:44:39;;;;;;;11.07;8.57;;;20.50;51.90;19.50;101412.00;;;;5049729;28;20429;-72
2022/05/21 04:47:25;;;;;;;15.43;8.90;;;20.50;52.00;19.50;101404.00;;;;5043245;28;20037;-72
2022/05/21 04:50:12;;;;;;;14.23;9.68;;;20.50;52.00;19.50;101418.00;;;;5075159;28;20502;-72
2022/05/21 04:52:58;;;;;;;12.05;8.65;;;20.50;52.00;19.50;101421.00;;;;5059811;28;20496;-73
2022/05/21 04:55:44;;;;;;;13.60;8.05;;;20.50;52.10;19.50;101413.00;;;;5066152;28;20041;-72
2022/05/21 04:58:30;;;;;;;16.33;8.73;;;20.50;52.10;19.50;101418.00;;;;5062069;28;20482;-72
2022/05/21 05:01:16;;;;;;;13.52;8.40;;;20.50;52.20;19.50;101432.00;;;;5066946;28;20787;-72
2022/05/21 05:04:02;;;;;;;11.60;8.27;;;20.50;52.20;19.50;101425.00;;;;5062208;28;20343;-72
2022/05/21 05:06:48;;;;;;;16.55;9.43;;;20.50;52.10;19.50;101429.00;;;;5061458;28;20044;-71
2022/05/21 05:09:42;;;;;;;14.30;8.40;;;20.50;52.20;19.50;101435.00;;;;5062354;28;20033;-72
2022/05/21 05:12:28;;;;;;;11.05;7.28;;;20.50;52.20;19.50;101436.00;;;;5047672;28;20032;-71
2022/05/21 05:15:15;;;;;;;12.70;7.82;;;20.50;52.30;19.50;101436.00;;;;5078479;28;20513;-72
2022/05/21 05:18:06;;;;;;;14.70;8.27;;;20.50;52.30;19.50;101429.00;;;;5062677;28;20123;-72
2022/05/21 05:20:52;;;;;;;13.00;8.02;;;20.50;52.30;19.50;101431.00;;;;5048870;28;20044;-72
2022/05/21 05:23:38;;;;;;;14.38;9.55;;;20.50;52.40;19.50;101426.00;;;;5059155;28;20040;-72
2022/05/21 05:26:25;;;;;;;14.07;8.85;;;20.50;52.40;19.50;101437.00;;;;5059622;28;20128;-72
2022/05/21 05:29:11;;;;;;;12.23;7.95;;;20.50;52.40;19.50;101441.00;;;;5053519;28;20111;-72
2022/05/21 05:31:57;;;;;;;12.93;7.50;;;20.50;52.40;19.50;101443.00;;;;5059755;28;20050;-73
2022/05/21 05:34:43;;;;;;;13.60;9.45;;;20.50;52.40;19.50;101441.00;;;;5059440;28;20101;-72
2022/05/21 05:37:29;;;;;;;11.60;7.22;;;20.50;52.40;19.50;101442.00;;;;5058328;28;20040;-72
2022/05/21 05:40:18;;;;;;;12.15;7.55;;;20.50;52.50;19.50;101433.00;;;;5065355;28;20051;-72
2022/05/21 05:43:05;;;;;;;10.90;6.90;;;20.50;52.70;19.50;101432.00;;;;5033875;28;20071;-83
2022/05/21 05:45:53;;;;;;;12.27;7.03;;;20.50;52.60;19.50;101447.00;;;;5051975;28;20680;-72
2022/05/21 05:48:39;;;;;;;12.40;6.93;;;20.50;52.60;19.50;101436.00;;;;5038766;28;20029;-72
2022/05/21 05:51:26;;;;;;;11.35;6.05;;;20.50;53.40;19.50;101440.00;;;;5039817;28;20527;-72
2022/05/21 05:54:13;;;;;;;12.23;5.95;;;20.50;52.60;19.50;101440.00;;;;5058466;28;20115;-71
2022/05/21 05:56:59;;;;;;;11.18;5.95;;;20.50;52.80;19.50;101437.00;;;;5039240;28;20068;-71
2022/05/21 05:59:50;;;;;;;11.43;6.82;;;20.50;52.70;19.50;101446.00;;;;5044385;28;20032;-71
2022/05/21 06:05:41;;;;;;;11.18;5.63;;;20.50;52.60;19.50;101451.00;;;;5045787;28;20075;-71
2022/05/21 06:08:27;;;;;;;9.10;5.35;;;20.50;52.60;19.50;101443.00;;;;5046987;28;20072;-73
2022/05/21 06:11:14;;;;;;;13.93;6.18;;;20.50;52.60;19.50;101444.00;;;;5031817;28;20041;-73
2022/05/21 06:14:00;;;;;;;9.07;5.00;;;20.50;52.60;19.50;101445.00;;;;5057417;28;20557;-73
2022/05/21 06:16:46;;;;;;;10.63;5.40;;;20.50;52.60;19.50;101448.00;;;;5040434;28;20095;-73
2022/05/21 06:19:32;;;;;;;9.23;5.03;;;20.50;52.60;19.50;101471.00;;;;5046398;28;20527;-73
2022/05/21 06:22:18;;;;;;;8.88;4.40;;;20.50;52.60;19.50;101465.00;;;;5047444;28;20048;-73
2022/05/21 06:25:05;;;;;;;7.82;4.85;;;20.50;52.60;19.50;101451.00;;;;5044358;28;20056;-73
2022/05/21 06:27:52;;;;;;;8.80;4.85;;;20.50;52.60;19.50;101464.00;;;;5043343;28;20040;-73
2022/05/21 06:30:39;;;;;;;10.70;5.05;;;20.60;52.50;19.50;101454.00;;;;5029478;28;20393;-73
2022/05/21 06:33:29;;;;;;;10.05;4.97;;;20.50;52.50;19.50;101462.00;;;;5055589;28;20033;-73
2022/05/21 06:36:16;;;;;;;7.78;4.65;;;20.50;52.40;19.50;101470.00;;;;5040346;28;20092;-73
2022/05/21 06:39:02;;;;;;;11.10;5.15;;;20.60;52.60;19.50;101471.00;;;;5038642;28;20606;-73
2022/05/21 06:41:48;;;;;;;11.18;4.80;;;20.60;52.60;19.50;101468.00;;;;5022390;28;20393;-73
2022/05/21 06:44:34;;;;;;;11.00;4.50;;;20.50;52.50;19.50;101472.00;;;;5044659;28;20052;-73
2022/05/21 06:47:21;;;;;;;10.50;5.10;;;20.50;52.50;19.50;101481.00;;;;5061562;28;20165;-73
2022/05/21 06:50:07;;;;;;;11.18;4.78;;;20.40;52.50;19.50;101473.00;;;;5040619;28;20477;-73
2022/05/21 06:52:54;;;;;;;10.40;4.82;;;20.50;52.60;19.50;101471.00;;;;5045310;28;20410;-73
2022/05/21 06:55:40;;;;;;;9.10;4.40;;;20.60;52.60;19.50;101475.00;;;;5045241;28;20067;-73
2022/05/21 06:58:26;;;;;;;8.18;4.38;;;20.40;52.60;19.50;101485.00;;;;5038400;28;20049;-73
2022/05/21 07:01:12;;;;;;;10.23;4.50;;;20.50;52.50;19.50;101486.00;;;;5042723;28;20052;-73
2022/05/21 07:03:58;;;;;;;11.90;4.25;;;20.60;52.60;19.50;101481.00;;;;5038098;28;20045;-73
2022/05/21 07:09:49;;;;;;;9.65;4.95;;;20.50;52.70;19.50;101480.00;;;;5047300;28;20043;-73
2022/05/21 07:12:35;;;;;;;12.20;4.47;;;20.50;52.70;19.50;101487.00;;;;5025494;28;20066;-73
2022/05/21 07:15:22;;;;;;;8.02;3.90;;;20.60;52.80;19.60;101489.00;;;;5051709;28;20041;-73
2022/05/21 07:18:08;;;;;;;9.30;4.70;;;20.60;52.80;19.60;101491.00;;;;5038754;28;20080;-74
2022/05/21 07:20:55;;;;;;;7.07;4.15;;;20.60;52.70;19.60;101493.00;;;;5047692;28;20067;-73
2022/05/21 07:23:41;;;;;;;8.98;3.83;;;20.60;52.70;19.60;101496.00;;;;5023058;28;20052;-74
2022/05/21 07:26:28;;;;;;;7.00;3.83;;;20.60;52.70;19.60;101495.00;;;;5054383;28;20505;-73
2022/05/21 07:29:14;;;;;;;13.15;5.95;;;20.60;52.60;19.60;101497.00;;;;5038575;28;20041;-73
2022/05/21 07:32:00;;;;;;;11.35;4.75;;;20.60;52.70;19.60;101483.00;;;;5043899;28;20064;-73
2022/05/21 07:34:46;;;;;;;13.00;5.32;;;20.60;52.70;19.60;101497.00;;;;5046263;28;20102;-73
2022/05/21 07:37:32;;;;;;;10.25;4.28;;;20.70;52.70;19.60;101522.00;;;;5047693;28;20087;-74
2022/05/21 07:40:19;;;;;;;14.10;4.38;;;20.80;53.00;19.60;101507.00;;;;5057849;28;20049;-74
2022/05/21 07:43:20;;;;;;;8.77;3.95;;;20.60;52.70;19.60;101497.00;;;;5051727;28;20040;-73
2022/05/21 07:46:07;;;;;;;8.07;3.72;;;20.60;52.50;19.60;101503.00;;;;5047690;28;20052;-73
2022/05/21 07:48:53;;;;;;;6.53;3.42;;;20.60;52.60;19.60;101499.00;;;;5043091;28;20462;-73
2022/05/21 07:51:39;;;;;;;10.25;3.72;;;20.70;52.70;19.70;101512.00;;;;5049129;28;20036;-73
2022/05/21 07:54:27;;;;;;;13.00;4.03;;;20.70;52.70;19.70;101510.00;;;;5045067;28;20509;-73
2022/05/21 07:57:13;;;;;;;8.75;3.45;;;20.80;52.70;19.70;101501.00;;;;5029741;28;20540;-73
2022/05/21 07:59:59;;;;;;;7.10;3.25;;;20.70;52.60;19.70;101519.00;;;;5050556;28;20036;-73
2022/05/21 08:02:45;;;;;;;11.30;3.17;;;20.70;52.60;19.70;101522.00;;;;5045469;28;20037;-74
2022/05/21 08:05:31;;;;;;;11.48;3.58;;;20.70;52.50;19.70;101519.00;;;;5061168;28;20099;-74
2022/05/21 08:08:17;;;;;;;5.72;3.58;;;20.70;52.40;19.70;101517.00;;;;5042768;28;20041;-74
2022/05/21 08:11:03;;;;;;;7.28;2.85;;;20.80;52.40;19.70;101524.00;;;;5050984;28;20098;-73
2022/05/21 08:13:49;;;;;;;7.85;2.90;;;20.80;52.30;19.70;101522.00;;;;5043246;28;20041;-74
2022/05/21 08:16:35;;;;;;;7.28;2.70;;;20.70;52.20;19.70;101512.00;;;;5043391;28;20044;-73
2022/05/21 08:19:21;;;;;;;7.80;3.08;;;20.80;52.00;19.70;101519.00;;;;5058955;28;20041;-73
2022/05/21 08:28:18;;;;;;;7.78;2.42;;;20.80;51.40;19.70;101529.00;;;;5057017;28;20047;-73
2022/05/21 08:31:04;;;;;;;8.35;1.98;;;20.80;51.20;19.80;101534.00;;;;5048219;28;20406;-73
2022/05/21 08:33:50;;;;;;;9.63;2.65;;;20.80;51.30;19.80;101532.00;;;;5049527;28;20110;-74
2022/05/21 08:36:36;;;;;;;10.75;2.20;;;20.70;51.30;19.80;101532.00;;;;5055333;28;20044;-74
2022/05/21 08:39:22;;;;;;;7.78;2.20;;;20.80;51.30;19.80;101539.00;;;;5051466;28;20041;-73
2022/05/21 08:42:20;;;;;;;9.77;2.10;;;20.80;51.10;19.80;101548.00;;;;5055112;28;20049;-73
2022/05/21 08:45:23;;;;;;;7.55;2.20;;;20.80;51.20;19.80;101538.00;;;;5047450;28;20921;-75
2022/05/21 08:48:09;;;;;;;11.13;2.10;;;20.80;51.30;19.80;101542.00;;;;5040217;28;20041;-75
2022/05/21 08:50:55;;;;;;;5.22;1.52;;;20.90;51.30;19.80;101550.00;;;;5059880;28;20044;-74
2022/05/21 08:53:47;;;;;;;4.97;1.65;;;20.80;50.90;19.80;101550.00;;;;5048215;28;20396;-74
2022/05/21 08:56:33;;;;;;;9.25;1.88;;;20.80;50.70;19.80;101540.00;;;;5029781;28;20505;-75
2022/05/21 08:59:20;;;;;;;9.18;2.35;;;20.80;50.90;19.80;101544.00;;;;5031008;28;20041;-75
2022/05/21 09:02:13;;;;;;;7.65;2.05;;;20.80;51.10;19.80;101550.00;;;;5041084;28;20045;-72
2022/05/21 09:05:00;;;;;;;4.25;1.70;;;20.90;51.40;19.80;101560.00;;;;5043192;28;20045;-72
2022/05/21 09:08:09;;;;;;;4.63;1.63;;;20.80;51.20;19.80;101545.00;;;;5019523;28;20048;-73
2022/05/21 09:11:03;;;;;;;3.95;2.17;;;20.80;51.30;19.80;101556.00;;;;5048949;28;20071;-72
2022/05/21 09:14:00;;;;;;;7.38;2.03;;;20.80;51.30;19.80;101555.00;;;;5040801;28;20410;-73
2022/05/21 09:16:55;;;;;;;7.72;2.03;;;20.80;52.00;19.80;101555.00;;;;5042172;28;20039;-72
2022/05/21 09:19:58;;;;;;;7.03;1.83;;;20.80;51.10;19.80;101553.00;;;;5045048;28;20118;-80
2022/05/21 09:22:54;;;;;;;7.50;1.70;;;20.90;50.90;19.80;101556.00;;;;5043483;28;20048;-72
2022/05/21 09:25:40;;;;;;;6.10;2.35;;;20.80;50.50;19.80;101565.00;;;;5024293;28;20056;-72
2022/05/21 09:28:27;;;;;;;5.80;1.50;;;20.80;50.90;19.80;101560.00;;;;5042085;28;20470;-78
2022/05/21 09:31:13;;;;;;;6.93;1.80;;;20.80;51.10;19.90;101569.00;;;;5033142;28;20029;-72
2022/05/21 09:34:16;;;;;;;9.40;1.67;;;20.80;50.80;19.90;101572.00;;;;5039548;28;20029;-71
2022/05/21 09:37:02;;;;;;;6.43;1.80;;;20.80;50.60;19.90;101578.00;;;;5057535;28;20368;-82
2022/05/21 09:39:48;;;;;;;6.85;2.45;;;20.80;51.10;19.90;101565.00;;;;5024737;28;20502;-72
2022/05/21 09:45:43;;;;;;;7.15;2.15;;;20.80;51.40;19.90;101564.00;;;;5039023;28;20132;-72
2022/05/21 09:48:30;;;;;;;5.55;1.65;;;20.80;51.30;19.90;101577.00;;;;5039533;28;20380;-71
2022/05/21 09:51:29;;;;;;;7.80;1.80;;;20.90;51.10;19.90;101563.00;;;;5054932;28;20044;-72
2022/05/21 09:54:21;;;;;;;8.60;2.28;;;20.90;52.00;19.90;101563.00;;;;5025944;28;20041;-71
2022/05/21 09:57:27;;;;;;;5.95;1.85;;;20.90;51.50;19.90;101563.00;;;;5036301;28;20033;-71
2022/05/21 10:00:31;;;;;;;7.97;2.53;;;20.90;51.40;20.00;101569.00;;;;5035744;28;20494;-71
2022/05/21 10:03:17;;;;;;;7.57;1.70;;;20.90;51.30;20.00;101585.00;;;;5034192;28;20049;-70
2022/05/21 10:06:05;;;;;;;5.65;1.77;;;20.90;51.10;20.00;101573.00;;;;5030485;28;20539;-71
2022/05/21 10:12:21;;;;;;;5.32;1.88;;;20.90;50.50;20.00;101572.00;;;;5045714;28;20038;-71
2022/05/21 10:15:16;;;;;;;8.18;1.60;;;20.90;50.70;20.00;101594.00;;;;5043964;28;20040;-71
2022/05/21 10:18:39;;;;;;;4.90;1.30;;;20.90;50.80;20.00;101582.00;;;;5030386;28;20032;-70
2022/05/21 10:21:53;;;;;;;3.75;1.40;;;21.00;50.60;20.00;101580.00;;;;5033507;28;20042;-71
2022/05/21 10:24:53;;;;;;;5.65;1.70;;;21.00;50.90;20.00;101562.00;;;;5025333;28;20087;-71
2022/05/21 10:28:20;;;;;;;6.57;1.63;;;21.00;51.00;20.00;101571.00;;;;5028805;28;20035;-72
2022/05/21 10:31:52;;;;;;;5.80;1.63;;;21.00;51.00;20.10;101580.00;;;;5035464;28;20489;-72
2022/05/21 10:35:21;;;;;;;6.13;1.50;;;21.00;50.30;20.10;101580.00;;;;5020020;28;20511;-79
2022/05/21 10:38:28;;;;;;;5.75;1.52;;;21.00;50.20;20.10;101572.00;;;;5025093;28;20311;-71
2022/05/21 10:41:44;;;;;;;4.72;1.40;;;21.10;49.90;20.10;101576.00;;;;5039841;28;20102;-71
2022/05/21 10:44:51;;;;;;;3.60;1.30;;;21.10;50.40;20.10;101585.00;;;;5044757;28;20041;-71
2022/05/21 10:48:14;;;;;;;5.68;1.30;;;21.10;49.90;20.20;101592.00;;;;5033365;28;20068;-71
2022/05/21 10:51:15;;;;;;;5.65;1.38;;;21.10;49.80;20.20;101578.00;;;;5053164;28;20071;-71
2022/05/21 10:54:38;;;;;;;5.55;1.60;;;21.20;50.00;20.20;101588.00;;;;5045644;28;20486;-71
2022/05/21 10:58:05;;;;;;;4.75;1.20;;;21.20;50.20;20.20;101582.00;;;;5037995;28;20075;-71
2022/05/21 11:01:14;;;;;;;6.40;1.52;;;21.20;50.10;20.20;101574.00;;;;5043514;28;20040;-71
2022/05/21 11:04:33;;;;;;;4.30;1.13;;;21.20;49.80;20.30;101589.00;;;;5046574;28;20051;-71
2022/05/21 11:07:40;;;;;;;12.52;4.20;;;21.30;49.70;20.30;101585.00;;;;5048341;28;20060;-72
2022/05/21 11:10:31;;;;;;;7.07;3.35;;;21.30;49.60;20.30;101591.00;;;;5052432;28;20049;-71
2022/05/21 11:13:32;;;;;;;8.48;2.00;;;21.30;49.90;20.30;101585.00;;;;5041414;28;20052;-71
2022/05/21 11:16:30;;;;;;;6.25;1.65;;;21.30;49.80;20.30;101589.00;;;;5053602;28;20041;-72
2022/05/21 11:19:36;;;;;;;7.47;1.70;;;21.40;50.00;20.40;101592.00;;;;5043180;28;20065;-71
2022/05/21 11:22:57;;;;;;;5.63;1.40;;;21.40;50.00;20.40;101579.00;;;;5038944;28;20099;-71
2022/05/21 11:25:46;;;;;;;2.80;0.88;;;21.40;49.80;20.40;101582.00;;;;5050657;28;20037;-71
2022/05/21 11:28:55;;;;;;;4.05;1.13;;;21.40;49.00;20.40;101585.00;;;;5043945;28;20090;-71
2022/05/21 11:38:12;;;;;;;4.50;1.17;;;21.50;48.70;20.40;101587.00;;;;5040533;28;20505;-71
2022/05/21 11:47:25;;;;;;;4.45;1.33;;;21.50;48.50;20.40;101599.00;;;;5045634;28;20426;-71
2022/05/21 11:50:26;;;;;;;5.13;1.52;;;21.50;49.00;20.40;101592.00;;;;5046724;28;20036;-71
2022/05/21 11:53:47;;;;;;;6.32;1.52;;;21.50;49.00;20.40;101608.00;;;;5033977;28;20435;-71
2022/05/21 11:57:00;;;;;;;3.63;1.27;;;21.50;49.60;20.50;101606.00;;;;5025686;28;20045;-71
2022/05/21 11:59:51;;;;;;;4.55;1.50;;;21.50;49.60;20.50;101620.00;;;;5036991;28;20421;-71
2022/05/21 12:03:04;;;;;;;4.15;1.33;;;21.60;49.50;20.40;101627.00;;;;5036705;28;20052;-72
2022/05/21 12:05:53;;;;;;;5.97;1.67;;;21.50;49.70;20.50;101620.00;;;;5053598;28;20037;-71
2022/05/21 12:08:46;;;;;;;4.13;1.52;;;21.50;49.50;20.50;101617.00;;;;5028936;28;20044;-72
2022/05/21 12:11:42;;;;;;;6.35;1.58;;;21.50;49.40;20.50;101616.00;;;;5042684;28;20048;-72
2022/05/21 12:14:30;;;;;;;8.27;1.67;;;21.50;49.70;20.50;101608.00;;;;5026614;28;20443;-71
2022/05/21 12:17:44;;;;;;;10.13;2.03;;;21.60;49.60;20.50;101613.00;;;;5028473;28;20037;-72
2022/05/21 12:20:47;;;;;;;3.85;1.25;;;21.50;49.40;20.50;101627.00;;;;5059460;28;20165;-72
2022/05/21 12:23:33;;;;;;;5.18;1.50;;;21.50;49.00;20.50;101616.00;;;;5045304;28;20443;-72
2022/05/21 12:26:27;;;;;;;7.72;1.95;;;21.50;49.20;20.50;101615.00;;;;5043675;28;20036;-72
2022/05/21 12:29:20;;;;;;;3.63;1.17;;;21.50;49.30;20.40;101620.00;;;;5053515;28;20537;-71
2022/05/21 12:32:16;;;;;;;6.10;1.13;;;21.50;48.80;20.40;101626.00;;;;5042514;28;20079;-71
2022/05/21 12:35:24;;;;;;;4.65;0.95;;;21.50;48.80;20.40;101622.00;;;;5054614;28;20399;-71
2022/05/21 12:38:29;;;;;;;2.95;0.95;;;21.50;48.80;20.40;101618.00;;;;5045105;28;20037;-72
2022/05/21 12:41:26;;;;;;;5.50;1.15;;;21.50;49.30;20.40;101622.00;;;;5049743;28;20044;-72
2022/05/21 12:44:36;;;;;;;5.22;1.35;;;21.50;49.20;20.40;101628.00;;;;5050972;28;20483;-71
2022/05/21 12:47:31;;;;;;;3.47;1.10;;;21.40;49.10;20.40;101606.00;;;;5035190;28;20053;-71
2022/05/21 12:50:21;;;;;;;6.13;1.67;;;21.40;48.80;20.40;101620.00;;;;5043344;28;20041;-71
2022/05/21 12:53:07;;;;;;;2.67;0.95;;;21.40;49.30;20.30;101622.00;;;;5030244;28;20217;-71
2022/05/21 12:56:17;;;;;;;6.20;1.30;;;21.40;49.20;20.30;101625.00;;;;5036035;28;20039;-71
2022/05/21 12:59:08;;;;;;;2.78;0.90;;;21.40;48.80;20.30;101635.00;;;;5039793;28;20033;-71
2022/05/21 13:02:15;;;;;;;4.25;1.10;;;21.40;49.30;20.30;101624.00;;;;5045188;28;20052;-71
2022/05/21 13:05:01;;;;;;;5.07;1.40;;;21.40;48.70;20.30;101624.00;;;;5042283;28;20077;-71
2022/05/21 13:07:47;;;;;;;7.70;1.20;;;21.40;49.20;20.40;101633.00;;;;5039734;28;20045;-71
2022/05/21 13:10:35;;;;;;;4.95;1.08;;;21.40;48.90;20.30;101631.00;;;;5036877;28;20298;-71